Time;durP1;ratioP1;P1;durP2;ratioP2;P2;SDS_P1;SDS_P2;PMS_P1;PMS_P2;Temp;Humidity;BMP_temperature;BMP_pressure;BME280_temperature;BME280_humidity;BME280_pressure;Samples;Min_cycle;Max_cycle;Signal;HPM_P1;HPM_P2
2023/08/21 00:00:23;;;;;;;18.25;13.43;;;25.10;99.90;;;;;;4854243;29;20056;-77
2023/08/21 00:02:50;;;;;;;19.85;13.05;;;25.10;99.90;;;;;;4866223;29;20120;-76
2023/08/21 00:05:18;;;;;;;16.48;13.52;;;25.10;99.90;;;;;;4867413;29;20103;-76
2023/08/21 00:07:50;;;;;;;18.75;13.88;;;25.10;99.90;;;;;;4839007;29;20091;-75
2023/08/21 00:10:18;;;;;;;18.70;14.13;;;25.10;99.90;;;;;;4857282;29;20367;-75
2023/08/21 00:12:46;;;;;;;15.88;13.27;;;25.10;99.90;;;;;;4850857;29;20108;-74
2023/08/21 00:15:13;;;;;;;16.63;14.23;;;25.10;99.90;;;;;;4848899;29;20049;-74
2023/08/21 00:17:41;;;;;;;16.98;13.77;;;25.10;99.90;;;;;;4860964;29;20048;-75
2023/08/21 00:20:09;;;;;;;19.50;13.80;;;25.10;99.90;;;;;;4849627;29;20370;-74
2023/08/21 00:22:38;;;;;;;17.20;14.43;;;25.00;99.90;;;;;;4865712;29;20147;-75
2023/08/21 00:25:07;;;;;;;16.52;13.52;;;24.90;99.90;;;;;;4872542;29;20486;-74
2023/08/21 00:27:35;;;;;;;17.63;14.10;;;24.90;99.90;;;;;;4873514;29;20129;-75
2023/08/21 00:30:03;;;;;;;15.48;13.30;;;24.90;99.90;;;;;;4848948;29;20050;-74
2023/08/21 00:32:31;;;;;;;13.75;12.35;;;25.00;99.90;;;;;;4835666;29;20049;-74
2023/08/21 00:34:58;;;;;;;14.48;13.00;;;25.10;99.90;;;;;;4839216;29;20515;-75
2023/08/21 00:37:31;;;;;;;17.52;13.43;;;25.10;99.90;;;;;;4849382;29;20049;-74
2023/08/21 00:39:59;;;;;;;19.63;13.90;;;25.10;99.90;;;;;;4869331;29;20529;-74
2023/08/21 00:42:27;;;;;;;16.38;14.27;;;25.10;99.90;;;;;;4859652;29;20492;-74
2023/08/21 00:44:56;;;;;;;15.52;13.10;;;25.10;99.90;;;;;;4863279;29;20157;-73
2023/08/21 00:47:24;;;;;;;16.45;13.40;;;25.10;99.90;;;;;;4860162;29;20109;-75
2023/08/21 00:49:52;;;;;;;15.27;13.10;;;25.10;99.90;;;;;;4831878;29;20105;-74
2023/08/21 00:52:21;;;;;;;17.80;13.20;;;25.10;99.90;;;;;;4856194;29;20048;-75
2023/08/21 00:54:50;;;;;;;16.83;13.52;;;25.10;99.90;;;;;;4858681;29;20124;-76
2023/08/21 00:57:18;;;;;;;15.73;12.80;;;25.10;99.90;;;;;;4844888;29;20114;-75
2023/08/21 00:59:47;;;;;;;14.57;12.57;;;25.10;99.90;;;;;;4846756;29;20051;-76
2023/08/21 01:02:17;;;;;;;16.42;13.48;;;25.10;99.90;;;;;;4850427;29;20056;-74
2023/08/21 01:04:45;;;;;;;18.83;14.15;;;25.10;99.90;;;;;;4860053;29;20114;-73
2023/08/21 01:07:14;;;;;;;15.20;13.60;;;25.00;99.90;;;;;;4853355;29;20057;-75
2023/08/21 01:09:54;;;;;;;17.65;13.68;;;24.90;99.90;;;;;;4872765;29;20055;-76
2023/08/21 01:12:48;;;;;;;22.05;14.40;;;24.90;99.90;;;;;;4859333;29;20141;-73
2023/08/21 01:15:17;;;;;;;18.67;14.27;;;24.90;99.90;;;;;;4859250;29;20044;-75
2023/08/21 01:17:46;;;;;;;17.05;14.48;;;24.90;99.90;;;;;;4861472;29;20081;-74
2023/08/21 01:20:16;;;;;;;18.55;13.98;;;24.70;99.90;;;;;;4850845;29;20056;-75
2023/08/21 01:22:48;;;;;;;17.52;13.63;;;24.60;99.90;;;;;;4859669;29;20045;-75
2023/08/21 01:25:16;;;;;;;16.60;14.02;;;24.50;99.90;;;;;;4849696;29;20052;-73
2023/08/21 01:27:48;;;;;;;22.45;16.77;;;24.40;99.90;;;;;;4870776;29;20521;-72
2023/08/21 01:30:16;;;;;;;23.20;17.13;;;24.30;99.90;;;;;;4855242;29;20445;-71
2023/08/21 01:33:00;;;;;;;16.25;14.30;;;24.30;99.90;;;;;;4859817;29;20136;-71
2023/08/21 01:35:29;;;;;;;19.17;16.40;;;24.20;99.90;;;;;;4853291;29;20136;-70
2023/08/21 01:37:58;;;;;;;22.02;16.02;;;24.10;99.90;;;;;;4837995;29;20483;-71
2023/08/21 01:40:27;;;;;;;18.85;16.13;;;24.10;99.90;;;;;;4854889;29;20429;-71
2023/08/21 01:42:54;;;;;;;19.50;15.23;;;24.10;99.90;;;;;;4859263;29;20482;-71
2023/08/21 01:45:22;;;;;;;22.20;16.42;;;24.10;99.90;;;;;;4856954;29;20045;-71
2023/08/21 01:47:51;;;;;;;20.23;15.93;;;24.10;99.90;;;;;;4859503;29;20602;-71
2023/08/21 01:50:18;;;;;;;21.33;16.95;;;24.10;99.90;;;;;;4859438;29;20136;-71
2023/08/21 01:52:46;;;;;;;19.95;16.45;;;24.10;99.90;;;;;;4858788;29;20060;-70
2023/08/21 01:55:14;;;;;;;20.30;16.23;;;24.10;99.90;;;;;;4854723;29;20440;-70
2023/08/21 01:57:42;;;;;;;20.02;16.23;;;24.10;99.90;;;;;;4856288;29;20060;-72
2023/08/21 02:00:10;;;;;;;21.98;16.02;;;24.10;99.90;;;;;;4839900;29;20037;-72
2023/08/21 02:02:40;;;;;;;19.80;16.57;;;24.10;99.90;;;;;;4848658;29;20129;-72
2023/08/21 02:05:09;;;;;;;20.92;15.98;;;24.00;99.90;;;;;;4840536;29;20052;-72
2023/08/21 02:07:37;;;;;;;18.33;14.90;;;24.00;99.90;;;;;;4854433;29;20634;-71
2023/08/21 02:10:08;;;;;;;20.73;17.80;;;24.00;99.90;;;;;;4841474;29;20045;-71
2023/08/21 02:12:35;;;;;;;18.80;16.05;;;24.00;99.90;;;;;;4853547;29;20045;-71
2023/08/21 02:15:10;;;;;;;18.60;16.33;;;23.90;99.90;;;;;;4849625;29;20046;-71
2023/08/21 02:17:37;;;;;;;23.55;16.70;;;23.90;99.90;;;;;;4823917;29;20059;-71
2023/08/21 02:20:05;;;;;;;22.95;17.10;;;23.90;99.90;;;;;;4838621;29;20345;-71
2023/08/21 02:22:34;;;;;;;23.67;18.13;;;23.80;99.90;;;;;;4868711;29;20049;-71
2023/08/21 02:25:02;;;;;;;21.17;17.90;;;23.90;99.90;;;;;;4853096;29;20041;-71
2023/08/21 02:27:30;;;;;;;21.00;17.88;;;23.90;99.90;;;;;;4853677;29;20112;-71
2023/08/21 02:29:58;;;;;;;21.05;17.92;;;23.90;99.90;;;;;;4846443;29;20034;-71
2023/08/21 02:32:26;;;;;;;21.80;17.27;;;23.90;99.90;;;;;;4875968;29;20059;-70
2023/08/21 02:34:53;;;;;;;19.77;16.73;;;23.90;99.90;;;;;;4870116;29;20041;-71
2023/08/21 02:37:20;;;;;;;20.08;16.15;;;23.80;99.90;;;;;;4856389;29;20132;-71
2023/08/21 02:39:48;;;;;;;24.17;17.25;;;23.80;99.90;;;;;;4833129;29;20090;-71
2023/08/21 02:42:15;;;;;;;18.58;16.13;;;23.80;99.90;;;;;;4827296;29;20045;-71
2023/08/21 02:44:42;;;;;;;23.20;18.52;;;23.70;99.90;;;;;;4870063;29;20037;-72
2023/08/21 02:47:10;;;;;;;22.15;17.23;;;23.60;99.90;;;;;;4846885;29;20464;-71
2023/08/21 02:49:38;;;;;;;18.88;16.45;;;23.60;99.90;;;;;;4861977;29;20048;-71
2023/08/21 02:52:05;;;;;;;23.08;17.98;;;23.60;99.90;;;;;;4865096;29;20105;-71
2023/08/21 02:54:33;;;;;;;20.67;18.55;;;23.60;99.90;;;;;;4845892;29;20056;-71
2023/08/21 02:57:00;;;;;;;20.17;17.10;;;23.60;99.90;;;;;;4856267;29;20050;-72
2023/08/21 02:59:28;;;;;;;19.73;17.55;;;23.50;99.90;;;;;;4850512;29;20069;-72
2023/08/21 03:01:55;;;;;;;18.35;16.45;;;23.50;99.90;;;;;;4857912;29;20462;-72
2023/08/21 03:04:23;;;;;;;21.13;17.45;;;23.50;99.90;;;;;;4869138;29;20100;-72
2023/08/21 03:06:51;;;;;;;21.95;17.50;;;23.40;99.90;;;;;;4861258;29;20049;-72
2023/08/21 03:09:18;;;;;;;18.27;16.38;;;23.30;99.90;;;;;;4871106;29;20124;-72
2023/08/21 03:11:46;;;;;;;22.20;17.20;;;23.30;99.90;;;;;;4872175;29;20196;-72
2023/08/21 03:14:15;;;;;;;20.65;17.58;;;23.30;99.90;;;;;;4847547;29;20042;-72
2023/08/21 03:16:43;;;;;;;22.77;18.92;;;23.20;99.90;;;;;;4851277;29;20055;-71
2023/08/21 03:19:10;;;;;;;20.60;18.33;;;23.20;99.90;;;;;;4833435;29;20084;-71
2023/08/21 03:21:39;;;;;;;19.40;16.45;;;23.20;99.90;;;;;;4850211;29;20040;-72
2023/08/21 03:24:07;;;;;;;24.33;17.88;;;23.20;99.90;;;;;;4829323;29;20194;-71
2023/08/21 03:26:35;;;;;;;21.23;17.45;;;23.20;99.90;;;;;;4845337;29;20048;-72
2023/08/21 03:29:03;;;;;;;22.25;17.02;;;23.10;99.90;;;;;;4848965;29;20084;-72
2023/08/21 03:31:31;;;;;;;24.13;18.42;;;23.10;99.90;;;;;;4831749;29;20545;-71
2023/08/21 03:33:59;;;;;;;21.85;17.33;;;23.00;99.90;;;;;;4861339;29;20049;-71
2023/08/21 03:36:33;;;;;;;21.33;18.10;;;23.00;99.90;;;;;;4851029;29;20060;-72
2023/08/21 03:39:04;;;;;;;22.02;18.15;;;23.00;99.90;;;;;;4854063;29;20044;-73
2023/08/21 03:41:33;;;;;;;24.15;18.17;;;23.00;99.90;;;;;;4842367;29;20053;-72
2023/08/21 03:44:01;;;;;;;24.65;18.60;;;22.90;99.90;;;;;;4858550;29;20399;-73
2023/08/21 03:46:29;;;;;;;22.88;18.40;;;22.90;99.90;;;;;;4828226;29;20045;-72
2023/08/21 03:48:56;;;;;;;21.77;17.85;;;22.90;99.90;;;;;;4852827;29;20052;-72
2023/08/21 03:51:24;;;;;;;22.77;17.77;;;22.90;99.90;;;;;;4859693;29;20446;-71
2023/08/21 03:53:51;;;;;;;22.65;18.13;;;22.90;99.90;;;;;;4855029;29;20045;-72
2023/08/21 03:56:19;;;;;;;22.25;18.30;;;22.90;99.90;;;;;;4838988;29;20552;-72
2023/08/21 03:58:48;;;;;;;22.38;19.15;;;22.90;99.90;;;;;;4855938;29;20059;-72
2023/08/21 04:01:15;;;;;;;23.38;19.02;;;22.90;99.90;;;;;;4870740;29;20493;-73
2023/08/21 04:03:43;;;;;;;20.67;18.45;;;22.80;99.90;;;;;;4859506;29;20049;-72
2023/08/21 04:06:12;;;;;;;21.92;19.58;;;22.80;99.90;;;;;;4854957;29;20056;-72
2023/08/21 04:08:39;;;;;;;21.52;19.23;;;22.80;99.90;;;;;;4859374;29;20505;-72
2023/08/21 04:11:07;;;;;;;22.58;17.95;;;22.90;99.90;;;;;;4861785;29;20109;-72
2023/08/21 04:13:35;;;;;;;23.80;18.38;;;22.90;99.90;;;;;;4856338;29;20327;-72
2023/08/21 04:16:03;;;;;;;21.27;18.58;;;22.90;99.90;;;;;;4871437;29;20376;-73
2023/08/21 04:18:30;;;;;;;24.25;19.50;;;22.80;99.90;;;;;;4857833;29;20041;-71
2023/08/21 04:21:09;;;;;;;22.05;18.67;;;22.80;99.90;;;;;;4847486;29;20076;-71
2023/08/21 04:23:37;;;;;;;23.40;19.73;;;22.80;99.90;;;;;;4851747;29;20123;-72
2023/08/21 04:26:05;;;;;;;22.48;19.10;;;22.80;99.90;;;;;;4839005;29;20049;-72
2023/08/21 04:28:33;;;;;;;23.02;18.90;;;22.80;99.90;;;;;;4850575;29;20064;-72
2023/08/21 04:31:07;;;;;;;21.52;19.27;;;22.90;99.90;;;;;;4842778;29;20049;-72
2023/08/21 04:33:35;;;;;;;22.30;19.45;;;22.90;99.90;;;;;;4862464;29;20052;-72
2023/08/21 04:36:04;;;;;;;23.98;19.65;;;22.90;99.90;;;;;;4860052;29;20046;-72
2023/08/21 04:38:33;;;;;;;22.52;18.85;;;23.00;99.90;;;;;;4846851;29;20060;-72
2023/08/21 04:41:08;;;;;;;24.10;19.23;;;23.00;99.90;;;;;;4864936;29;20072;-73
2023/08/21 04:43:39;;;;;;;23.10;20.65;;;23.00;99.90;;;;;;4845090;29;20057;-73
2023/08/21 04:46:08;;;;;;;23.58;20.80;;;23.10;99.90;;;;;;4833791;29;20507;-73
2023/08/21 04:48:39;;;;;;;21.80;19.48;;;23.20;99.90;;;;;;4861484;29;20049;-72
2023/08/21 04:51:08;;;;;;;21.08;18.63;;;23.30;99.90;;;;;;4841525;29;20037;-72
2023/08/21 04:53:36;;;;;;;22.63;18.35;;;23.30;99.90;;;;;;4830796;29;20425;-74
2023/08/21 04:56:08;;;;;;;;;;;23.40;99.90;;;;;;4829563;29;20137;-73
2023/08/21 04:58:36;;;;;;;20.40;17.23;;;23.40;99.90;;;;;;4861575;29;20367;-74
2023/08/21 05:01:05;;;;;;;19.35;17.25;;;23.50;99.90;;;;;;4851030;29;20041;-73
2023/08/21 05:03:36;;;;;;;24.67;19.95;;;23.50;99.90;;;;;;4849924;29;20055;-74
2023/08/21 05:06:05;;;;;;;22.73;18.83;;;23.60;99.90;;;;;;4845562;29;20586;-73
2023/08/21 05:08:33;;;;;;;29.17;19.70;;;23.60;99.90;;;;;;4842545;29;20521;-73
2023/08/21 05:11:02;;;;;;;24.90;20.27;;;23.60;99.90;;;;;;4837194;29;20077;-77
2023/08/21 05:13:33;;;;;;;23.85;19.40;;;23.60;99.90;;;;;;4857096;29;20068;-71
2023/08/21 05:16:01;;;;;;;23.40;18.67;;;23.70;99.90;;;;;;4855568;29;20037;-73
2023/08/21 05:18:33;;;;;;;26.02;18.38;;;23.70;99.90;;;;;;4825495;29;20529;-73
2023/08/21 05:21:01;;;;;;;24.50;18.58;;;23.80;99.90;;;;;;4855702;29;20049;-73
2023/08/21 05:23:29;;;;;;;19.90;17.80;;;23.80;99.90;;;;;;4847423;29;20053;-73
2023/08/21 05:26:01;;;;;;;23.02;18.58;;;23.80;99.90;;;;;;4841767;29;20084;-72
2023/08/21 05:28:29;;;;;;;24.90;19.00;;;23.90;99.90;;;;;;4835913;29;20453;-73
2023/08/21 05:30:58;;;;;;;21.95;17.80;;;23.90;99.90;;;;;;4843288;29;20057;-74
2023/08/21 05:33:30;;;;;;;24.40;20.35;;;23.90;99.90;;;;;;4831559;29;20084;-73
2023/08/21 05:35:59;;;;;;;23.17;19.35;;;24.00;99.90;;;;;;4853983;29;20075;-74
2023/08/21 05:38:28;;;;;;;22.30;17.48;;;24.00;99.90;;;;;;4842652;29;20057;-75
2023/08/21 05:40:58;;;;;;;22.20;18.73;;;24.10;99.90;;;;;;4865907;29;20049;-74
2023/08/21 05:43:25;;;;;;;20.63;18.17;;;24.20;99.90;;;;;;4857246;29;20044;-74
2023/08/21 05:45:53;;;;;;;28.60;21.33;;;24.30;99.90;;;;;;4859080;29;20093;-74
2023/08/21 05:48:21;;;;;;;27.13;22.40;;;24.40;99.90;;;;;;4838353;29;20054;-74
2023/08/21 05:50:54;;;;;;;23.63;20.60;;;24.30;99.90;;;;;;4859139;29;20048;-73
2023/08/21 05:53:21;;;;;;;25.73;20.98;;;24.40;99.90;;;;;;4839111;29;20045;-75
2023/08/21 05:55:49;;;;;;;24.55;22.05;;;24.50;99.90;;;;;;4859563;29;20143;-75
2023/08/21 05:58:16;;;;;;;24.27;19.70;;;24.50;99.90;;;;;;4854532;29;20042;-75
2023/08/21 06:00:44;;;;;;;22.67;18.42;;;24.50;99.90;;;;;;4857697;29;20041;-74
2023/08/21 06:03:12;;;;;;;23.90;20.73;;;24.60;99.90;;;;;;4859109;29;20041;-75
2023/08/21 06:06:18;;;;;;;28.58;22.13;;;24.80;99.90;;;;;;4825937;29;20042;-75
2023/08/21 06:08:46;;;;;;;27.55;22.52;;;24.80;99.90;;;;;;4814803;29;20066;-76
2023/08/21 06:11:15;;;;;;;26.25;20.63;;;24.90;99.90;;;;;;4815103;29;20061;-77
2023/08/21 06:13:43;;;;;;;25.38;21.00;;;25.00;99.90;;;;;;4816367;29;20086;-76
2023/08/21 06:16:13;;;;;;;23.67;20.38;;;25.10;99.90;;;;;;4811984;29;20054;-75
2023/08/21 06:18:44;;;;;;;24.17;21.58;;;25.10;99.90;;;;;;4825875;29;20058;-75
2023/08/21 06:21:12;;;;;;;24.85;21.92;;;25.10;99.90;;;;;;4811572;29;20066;-75
2023/08/21 06:23:41;;;;;;;26.10;22.08;;;25.00;99.90;;;;;;4817177;29;20539;-75
2023/08/21 06:26:10;;;;;;;30.10;21.35;;;25.10;99.90;;;;;;4791212;29;20553;-75
2023/08/21 06:28:39;;;;;;;31.90;23.42;;;25.30;99.90;;;;;;4804831;29;20052;-76
2023/08/21 06:31:08;;;;;;;25.40;22.13;;;25.10;99.90;;;;;;4802784;29;20146;-76
2023/08/21 06:33:37;;;;;;;26.25;23.10;;;25.20;99.90;;;;;;4789274;29;20047;-75
2023/08/21 06:36:06;;;;;;;29.10;22.92;;;25.10;99.90;;;;;;4800684;29;20049;-76
2023/08/21 06:38:34;;;;;;;30.02;23.10;;;25.20;99.90;;;;;;4870581;29;20056;-74
2023/08/21 06:41:04;;;;;;;25.50;21.27;;;25.20;99.90;;;;;;4853603;29;20077;-75
2023/08/21 06:43:38;;;;;;;27.05;23.42;;;25.30;99.90;;;;;;4850504;29;20057;-75
2023/08/21 06:46:12;;;;;;;28.20;23.85;;;25.50;99.90;;;;;;4838701;29;20544;-76
2023/08/21 06:48:42;;;;;;;26.13;22.08;;;25.60;99.90;;;;;;4842293;29;20112;-74
2023/08/21 06:51:10;;;;;;;29.05;23.85;;;25.80;99.90;;;;;;4848818;29;20645;-74
2023/08/21 06:53:42;;;;;;;26.85;22.17;;;25.80;99.90;;;;;;4852240;29;20041;-74
2023/08/21 06:56:10;;;;;;;27.90;23.55;;;26.00;99.90;;;;;;4854247;29;20045;-73
2023/08/21 06:58:38;;;;;;;29.23;25.40;;;26.00;99.90;;;;;;4846055;29;20152;-74
2023/08/21 07:01:06;;;;;;;31.13;22.70;;;26.00;99.90;;;;;;4876346;29;20128;-73
2023/08/21 07:03:33;;;;;;;28.67;24.17;;;26.10;99.90;;;;;;4871365;29;20048;-73
2023/08/21 07:06:01;;;;;;;27.83;23.15;;;26.20;99.90;;;;;;4860013;29;20410;-74
2023/08/21 07:08:28;;;;;;;26.17;22.23;;;26.20;99.90;;;;;;4871891;29;20498;-73
2023/08/21 07:10:56;;;;;;;26.50;23.63;;;26.40;99.90;;;;;;4857061;29;20045;-72
2023/08/21 07:13:24;;;;;;;25.77;22.05;;;26.40;99.90;;;;;;4876497;29;20041;-73
2023/08/21 07:15:54;;;;;;;25.55;20.98;;;26.40;99.90;;;;;;4854806;29;20042;-73
2023/08/21 07:18:22;;;;;;;28.63;23.43;;;26.40;99.90;;;;;;4871350;29;20068;-74
2023/08/21 07:20:53;;;;;;;30.48;23.98;;;26.40;99.90;;;;;;4848654;29;20160;-74
2023/08/21 07:23:21;;;;;;;30.00;25.25;;;26.30;99.90;;;;;;4840092;29;20052;-74
2023/08/21 07:25:48;;;;;;;28.20;24.63;;;26.10;99.90;;;;;;4856494;29;20064;-74
2023/08/21 07:28:17;;;;;;;25.45;21.25;;;26.10;99.90;;;;;;4851703;29;20073;-73
2023/08/21 07:30:45;;;;;;;26.95;23.52;;;26.20;99.90;;;;;;4876810;29;20048;-74
2023/08/21 07:33:13;;;;;;;32.55;25.08;;;26.20;99.90;;;;;;4857811;29;20528;-73
2023/08/21 07:35:42;;;;;;;28.63;21.95;;;26.20;99.90;;;;;;4878587;29;20478;-74
2023/08/21 07:38:11;;;;;;;27.05;23.75;;;26.40;99.90;;;;;;4857070;29;20062;-74
2023/08/21 07:40:38;;;;;;;27.38;23.15;;;26.40;99.90;;;;;;4877460;29;20052;-75
2023/08/21 07:43:06;;;;;;;27.95;24.25;;;26.30;99.90;;;;;;4852528;29;20045;-73
2023/08/21 07:45:37;;;;;;;26.48;22.92;;;26.30;99.90;;;;;;4874888;29;20060;-75
2023/08/21 07:48:05;;;;;;;27.27;23.73;;;26.40;99.90;;;;;;4856140;29;20136;-75
2023/08/21 07:50:40;;;;;;;29.10;24.45;;;26.50;99.90;;;;;;4855963;29;20124;-75
2023/08/21 07:53:08;;;;;;;27.05;22.58;;;26.30;99.90;;;;;;4857274;29;20096;-75
2023/08/21 07:55:36;;;;;;;30.52;22.00;;;26.50;99.90;;;;;;4876375;29;20147;-76
2023/08/21 07:58:05;;;;;;;27.83;22.73;;;26.60;99.90;;;;;;4878213;29;20508;-73
2023/08/21 08:00:34;;;;;;;28.15;21.02;;;26.70;99.90;;;;;;4871844;29;20049;-73
2023/08/21 08:03:02;;;;;;;28.35;22.70;;;26.70;99.90;;;;;;4850268;29;20053;-74
2023/08/21 08:05:31;;;;;;;23.98;21.38;;;26.80;99.90;;;;;;4861800;29;20045;-73
2023/08/21 08:08:02;;;;;;;27.25;21.55;;;26.90;99.90;;;;;;4855102;29;20092;-74
2023/08/21 08:10:30;;;;;;;24.77;20.63;;;26.90;99.90;;;;;;4882121;29;20037;-73
2023/08/21 08:12:58;;;;;;;23.52;20.63;;;27.00;99.90;;;;;;4869568;29;20041;-75
2023/08/21 08:15:25;;;;;;;26.05;20.83;;;27.10;99.90;;;;;;4862989;29;20494;-74
2023/08/21 08:17:54;;;;;;;27.48;19.95;;;27.10;99.90;;;;;;4875642;29;20053;-73
2023/08/21 08:20:24;;;;;;;20.85;18.08;;;26.90;99.90;;;;;;4882908;29;20124;-74
2023/08/21 08:22:52;;;;;;;20.52;17.88;;;27.20;99.90;;;;;;4859169;29;20126;-73
2023/08/21 08:25:20;;;;;;;21.48;17.30;;;27.30;99.90;;;;;;4861901;29;20041;-74
2023/08/21 08:27:47;;;;;;;18.55;16.65;;;27.50;99.90;;;;;;4846917;29;20103;-73
2023/08/21 08:30:16;;;;;;;20.40;15.88;;;27.70;99.90;;;;;;4856567;29;20136;-74
2023/08/21 08:32:46;;;;;;;20.92;17.38;;;27.90;99.90;;;;;;4843118;29;20072;-74
2023/08/21 08:35:16;;;;;;;21.13;16.67;;;27.90;99.90;;;;;;4852933;29;20048;-75
2023/08/21 08:37:43;;;;;;;18.15;16.23;;;28.00;99.90;;;;;;4859284;29;20097;-75
2023/08/21 08:40:12;;;;;;;20.70;16.98;;;27.90;99.90;;;;;;4880038;29;20096;-74
2023/08/21 08:42:40;;;;;;;21.23;16.95;;;27.90;99.90;;;;;;4845745;29;20061;-74
2023/08/21 08:45:08;;;;;;;20.77;17.17;;;28.10;99.90;;;;;;4867605;29;20528;-73
2023/08/21 08:47:36;;;;;;;25.63;17.23;;;28.20;99.90;;;;;;4856193;29;20060;-74
2023/08/21 08:50:06;;;;;;;20.52;18.05;;;28.30;99.90;;;;;;4850302;29;20046;-73
2023/08/21 08:52:39;;;;;;;22.58;17.88;;;28.20;99.90;;;;;;4879454;29;20103;-74
2023/08/21 08:55:09;;;;;;;19.70;16.98;;;28.00;99.90;;;;;;4859189;29;20125;-74
2023/08/21 08:57:36;;;;;;;21.42;17.52;;;28.00;99.90;;;;;;4846614;29;20040;-74
2023/08/21 09:00:04;;;;;;;21.10;17.33;;;28.20;99.90;;;;;;4856352;29;20113;-74
2023/08/21 09:02:34;;;;;;;21.10;18.90;;;28.20;99.90;;;;;;4843482;29;20056;-74
2023/08/21 09:05:04;;;;;;;22.27;17.95;;;28.20;99.90;;;;;;4846456;29;20164;-74
2023/08/21 09:07:32;;;;;;;21.60;17.40;;;28.20;99.90;;;;;;4881316;29;20177;-74
2023/08/21 09:10:00;;;;;;;20.83;17.23;;;28.30;99.90;;;;;;4851727;29;20041;-73
2023/08/21 09:12:32;;;;;;;19.80;16.58;;;28.10;99.90;;;;;;4859591;29;20076;-73
2023/08/21 09:15:01;;;;;;;19.52;15.82;;;28.20;99.90;;;;;;4843241;29;20049;-73
2023/08/21 09:17:30;;;;;;;19.77;15.45;;;28.30;99.90;;;;;;4873067;29;20434;-73
2023/08/21 09:20:07;;;;;;;16.58;14.73;;;28.40;99.90;;;;;;4880168;29;20079;-74
2023/08/21 09:22:35;;;;;;;20.60;15.25;;;28.50;99.90;;;;;;4847809;29;20421;-73
2023/08/21 09:25:08;;;;;;;17.92;16.02;;;28.60;99.90;;;;;;4858153;29;20518;-74
2023/08/21 09:27:40;;;;;;;18.65;16.60;;;28.70;99.90;;;;;;4882681;29;20052;-74
2023/08/21 09:30:14;;;;;;;43.97;35.75;;;28.60;99.90;;;;;;4849535;29;20189;-74
2023/08/21 09:33:00;;;;;;;19.48;16.52;;;28.80;99.90;;;;;;4861714;29;20590;-74
2023/08/21 09:35:32;;;;;;;17.35;15.63;;;29.00;99.90;;;;;;4880004;29;20490;-74
2023/08/21 09:38:00;;;;;;;16.90;14.73;;;29.20;99.90;;;;;;4877220;29;20395;-74
2023/08/21 09:40:29;;;;;;;19.25;14.93;;;29.30;99.90;;;;;;4880844;29;20152;-75
2023/08/21 09:42:59;;;;;;;17.23;14.77;;;29.50;99.90;;;;;;4838977;29;20049;-76
2023/08/21 09:45:29;;;;;;;15.75;12.93;;;29.50;99.90;;;;;;4862229;29;20136;-75
2023/08/21 09:47:58;;;;;;;15.13;13.63;;;29.50;99.90;;;;;;4863620;29;20423;-74
2023/08/21 09:50:28;;;;;;;19.08;14.13;;;29.60;99.90;;;;;;4863282;29;20049;-73
2023/08/21 09:52:58;;;;;;;15.50;13.77;;;29.70;99.90;;;;;;4828458;29;20052;-74
2023/08/21 09:55:45;;;;;;;17.15;14.13;;;29.90;99.90;;;;;;4879330;29;20060;-75
2023/08/21 09:58:13;;;;;;;16.02;12.90;;;30.10;99.90;;;;;;4858574;29;20617;-74
2023/08/21 10:00:43;;;;;;;13.80;12.43;;;30.50;99.90;;;;;;4878095;29;20167;-75
2023/08/21 10:03:11;;;;;;;16.67;13.38;;;30.70;99.90;;;;;;4860753;29;20406;-74
2023/08/21 10:05:41;;;;;;;15.25;13.55;;;30.80;99.90;;;;;;4876260;29;20492;-74
2023/08/21 10:08:10;;;;;;;14.90;13.35;;;30.70;99.90;;;;;;4877526;29;20080;-74
2023/08/21 10:10:39;;;;;;;18.08;12.57;;;30.90;99.90;;;;;;4841138;29;20139;-75
2023/08/21 10:13:08;;;;;;;16.27;13.40;;;30.80;99.90;;;;;;4843806;29;20049;-75
2023/08/21 10:15:38;;;;;;;15.50;13.13;;;30.70;99.90;;;;;;4874091;29;20072;-74
2023/08/21 10:18:17;;;;;;;16.55;13.80;;;30.60;99.90;;;;;;4846667;29;20533;-75
2023/08/21 10:20:45;;;;;;;15.27;13.38;;;30.70;99.90;;;;;;4867080;29;20113;-74
2023/08/21 10:23:30;;;;;;;15.18;13.30;;;30.80;99.90;;;;;;4816297;29;20069;-74
2023/08/21 10:26:00;;;;;;;20.95;13.88;;;30.80;99.90;;;;;;4855279;29;20064;-76
2023/08/21 10:28:52;;;;;;;14.17;12.70;;;30.90;99.90;;;;;;4854320;29;20072;-74
2023/08/21 10:31:31;;;;;;;13.87;11.43;;;30.90;99.90;;;;;;4857436;29;20059;-75
2023/08/21 10:34:00;;;;;;;13.93;11.93;;;30.90;99.90;;;;;;4873388;29;20321;-73
2023/08/21 10:37:06;;;;;;;13.20;11.57;;;31.20;99.90;;;;;;4878918;29;20041;-74
2023/08/21 10:39:35;;;;;;;12.55;11.45;;;31.30;99.90;;;;;;4839273;29;20053;-73
2023/08/21 10:42:15;;;;;;;14.07;12.77;;;31.60;99.90;;;;;;4849165;29;20076;-75
2023/08/21 10:44:51;;;;;;;13.32;12.02;;;31.60;99.90;;;;;;4844515;29;20081;-74
2023/08/21 10:47:26;;;;;;;14.27;12.77;;;31.70;99.90;;;;;;4838273;29;20415;-74
2023/08/21 10:49:57;;;;;;;14.52;13.13;;;31.60;99.90;;;;;;4829868;29;20113;-74
2023/08/21 10:52:28;;;;;;;16.48;13.02;;;31.40;99.90;;;;;;4841739;29;20140;-73
2023/08/21 10:54:59;;;;;;;10.65;9.75;;;31.50;99.90;;;;;;4850408;29;20056;-73
2023/08/21 10:57:28;;;;;;;;;;;31.50;99.90;;;;;;4851347;29;20050;-73
2023/08/21 11:00:09;;;;;;;10.98;9.98;;;31.60;99.90;;;;;;4836248;29;19948;-73
2023/08/21 11:02:39;;;;;;;11.23;9.65;;;31.80;99.90;;;;;;4841353;29;20064;-74
2023/08/21 11:05:10;;;;;;;15.43;10.40;;;32.10;99.90;;;;;;4845640;29;20057;-74
2023/08/21 11:07:45;;;;;;;11.63;10.00;;;32.20;99.90;;;;;;4856502;29;20173;-73
2023/08/21 11:10:16;;;;;;;11.13;10.02;;;32.20;99.90;;;;;;4843968;29;20060;-75
2023/08/21 11:12:51;;;;;;;;;;;32.20;99.90;;;;;;4871611;29;20051;-73
2023/08/21 11:15:20;;;;;;;11.32;9.98;;;32.30;99.90;;;;;;4876868;29;19930;-75
2023/08/21 11:17:58;;;;;;;13.50;10.43;;;32.30;99.90;;;;;;4863105;29;20112;-73
2023/08/21 11:20:30;;;;;;;10.40;9.40;;;32.40;99.90;;;;;;4878477;29;20058;-76
2023/08/21 11:23:02;;;;;;;13.25;10.18;;;32.50;99.90;;;;;;4857310;29;20069;-73
2023/08/21 11:25:30;;;;;;;10.27;9.25;;;32.50;99.90;;;;;;4880257;29;20057;-75
2023/08/21 11:27:57;;;;;;;10.55;9.50;;;32.80;99.90;;;;;;4854973;29;20542;-74
2023/08/21 11:30:26;;;;;;;11.95;8.88;;;33.20;99.90;;;;;;4859555;29;20056;-74
2023/08/21 11:33:12;;;;;;;12.57;11.27;;;33.60;99.90;;;;;;4871341;29;20484;-73
2023/08/21 11:35:41;;;;;;;13.07;10.60;;;33.40;99.90;;;;;;4876196;29;20045;-75
2023/08/21 11:38:18;;;;;;;12.00;10.90;;;33.60;99.90;;;;;;4839593;29;20065;-74
2023/08/21 11:41:02;;;;;;;11.75;10.52;;;33.80;99.90;;;;;;4829586;29;20102;-74
2023/08/21 11:43:42;;;;;;;11.52;10.27;;;33.80;99.90;;;;;;4859011;29;20554;-75
2023/08/21 11:46:10;;;;;;;10.60;9.48;;;34.10;99.90;;;;;;4854730;29;20100;-75
2023/08/21 11:48:41;;;;;;;11.30;10.02;;;34.40;99.90;;;;;;4875292;29;20053;-76
2023/08/21 11:51:09;;;;;;;10.43;9.45;;;34.50;99.90;;;;;;4857519;29;20052;-74
2023/08/21 11:53:41;;;;;;;13.13;9.90;;;34.70;99.90;;;;;;4852704;29;20575;-78
2023/08/21 11:56:14;;;;;;;12.10;9.77;;;35.00;99.90;;;;;;4870683;29;20055;-74
2023/08/21 11:58:45;;;;;;;11.35;9.63;;;35.40;99.90;;;;;;4873493;29;20057;-75
2023/08/21 12:01:19;;;;;;;11.63;9.30;;;35.80;99.90;;;;;;4874135;29;20080;-75
2023/08/21 12:03:54;;;;;;;10.80;9.57;;;36.10;99.90;;;;;;4843336;29;20084;-74
2023/08/21 12:06:35;;;;;;;11.75;9.75;;;36.20;99.90;;;;;;4854295;29;20147;-74
2023/08/21 12:09:04;;;;;;;11.48;10.48;;;35.60;99.90;;;;;;4842105;29;20520;-75
2023/08/21 12:11:32;;;;;;;12.40;10.50;;;35.40;99.90;;;;;;4875298;29;20049;-74
2023/08/21 12:14:01;;;;;;;11.57;10.45;;;35.70;99.90;;;;;;4847991;29;20061;-76
2023/08/21 12:16:28;;;;;;;12.57;11.05;;;35.90;99.90;;;;;;4859937;29;20136;-77
2023/08/21 12:18:57;;;;;;;11.60;10.50;;;35.90;99.90;;;;;;4834474;29;20158;-72
2023/08/21 12:21:25;;;;;;;11.52;10.45;;;36.30;99.90;;;;;;4849577;29;20141;-76
2023/08/21 12:23:56;;;;;;;12.70;11.43;;;36.60;99.90;;;;;;4873164;29;20048;-77
2023/08/21 12:26:24;;;;;;;12.68;10.70;;;36.80;99.90;;;;;;4877163;29;20081;-78
2023/08/21 12:29:03;;;;;;;12.38;11.23;;;36.90;99.90;;;;;;4869145;29;20438;-76
2023/08/21 12:31:30;;;;;;;14.20;11.35;;;37.20;99.90;;;;;;4883383;29;20474;-76
2023/08/21 12:33:59;;;;;;;13.25;11.30;;;37.10;99.90;;;;;;4854327;29;20069;-75
2023/08/21 12:36:26;;;;;;;12.40;11.27;;;37.80;99.90;;;;;;4847838;29;20510;-75
2023/08/21 12:38:55;;;;;;;13.00;11.15;;;37.50;99.90;;;;;;4860540;29;20423;-77
2023/08/21 12:41:22;;;;;;;18.50;11.80;;;37.30;99.90;;;;;;4876115;29;20529;-77